METAR Data
IDs: Format: Raw Decoded Include TAF

Data at: 0239 UTC 25 Jan 2020

PASX 250156Z AUTO 00000KT 10SM CLR M21/M23 A2947 RMK AO2 SLP989 T12061228 FZRANO
PASX 250056Z AUTO 08003KT 10SM SCT050 M17/M19 A2946 RMK AO2 SLP987 T11721194 FZRANO
PASX 242356Z AUTO 00000KT 10SM CLR M17/M19 A2946 RMK AO2 SLP985 60000 T11671189 11167 21278 56004 FZRANO
PASX 242256Z AUTO 00000KT 10SM CLR M19/M21 A2946 RMK AO2 SNB15E27 SLP986 P0000 T11891211 FZRANO
PASX 242156Z AUTO 06005KT 10SM CLR M21/M23 A2946 RMK AO2 SLP986 T12061228 FZRANO
PASX 242056Z AUTO 07003KT 10SM CLR M24/M26 A2947 RMK AO2 SLP990 T12391261 53004 FZRANO
PASX 241956Z AUTO 08004KT 10SM CLR M26/M28 A2946 RMK AO2 SLP988 T12561283 FZRANO
PASX 241856Z AUTO 06004KT 9SM CLR M28/M30 A2946 RMK AO2 SLP986 T12781300 FZRANO
PASX 241756Z AUTO 06003KT 10SM CLR M28/M30 A2946 RMK AO2 SLP985 T12781300 11256 21278 56005 FZRANO
PASX 241656Z AUTO 06003KT 10SM CLR M27/M30 A2946 RMK AO2 SLP986 T12721300 FZRANO
PASX 241556Z AUTO 00000KT 10SM CLR M27/M30 A2947 RMK AO2 SLP988 T12721300 FZRANO
PASX 241456Z AUTO 06003KT 10SM FEW110 M27/M29 A2947 RMK AO2 SLP991 T12671294 58010 FZRANO
PASX 241356Z AUTO 00000KT 10SM SCT100 M26/M29 A2949 RMK AO2 SLP995 T12611289 FZRANO
PASX 241256Z AUTO 06003KT 10SM CLR M26/M28 A2949 RMK AO2 SLP998 T12561278 FZRANO
PASX 241156Z AUTO 00000KT 10SM CLR M26/M28 A2950 RMK AO2 SLP001 T12611283 11233 21261 56009 FZRANO
PASX 241056Z AUTO 00000KT 10SM CLR M25/M27 A2951 RMK AO2 SLP003 T12501272 FZRANO
PASX 240956Z AUTO 00000KT 10SM CLR M25/M27 A2952 RMK AO2 SLP007 T12501272 FZRANO
PASX 240856Z AUTO 00000KT 10SM CLR M26/M28 A2953 RMK AO2 SLP011 T12611283 411391261 56000 FZRANO
PASX 240756Z AUTO 05003KT 10SM CLR M25/M27 A2953 RMK AO2 SLP011 T12501272 FZRANO
PASX 240656Z AUTO 00000KT 10SM CLR M25/M28 A2953 RMK AO2 SLP011 T12501278 FZRANO
PASX 240556Z AUTO 07003KT 10SM CLR M24/M27 A2953 RMK AO2 SLP011 T12441272 11161 21244 52003 FZRANO
PASX 240456Z AUTO 00000KT 10SM FEW080 M23/M25 A2953 RMK AO2 SLP010 T12281250 FZRANO
PASX 240356Z AUTO 00000KT 10SM CLR M23/M25 A2953 RMK AO2 SLP009 T12281250 FZRANO
PASX 240256Z AUTO 00000KT 10SM CLR M21/M23 A2952 RMK AO2 SLP007 T12061228 56005 FZRANO
PASX 240156Z AUTO 00000KT 10SM CLR M19/M21 A2952 RMK AO2 SLP008 T11891211 FZRANO
PASX 240056Z AUTO 00000KT 10SM CLR M17/M19 A2953 RMK AO2 SLP010 T11721194 FZRANO
PASX 232356Z AUTO 00000KT 10SM CLR M16/M18 A2954 RMK AO2 SLP012 60000 T11611178 11156 21239 56010 FZRANO
PASX 232256Z AUTO 00000KT 10SM FEW075 M17/M19 A2954 RMK AO2 SLP013 T11721194 FZRANO
PASX 232156Z AUTO 00000KT 10SM BKN070 M19/M21 A2955 RMK AO2 SNB25E43 SLP015 P0000 T11891211 FZRANO
PASX 232056Z AUTO 00000KT 6SM BR FEW050 M21/M23 A2957 RMK AO2 SNB1958E13 SLP022 P0000 60000 T12061228 58002 FZRANO
PASX 231956Z AUTO VRB04KT 10SM CLR M23/M26 A2957 RMK AO2 SNB26E45 SLP023 P0000 T12331256 FZRANO
PASX 231856Z AUTO 00000KT 10SM OVC075 M23/M25 A2958 RMK AO2 SLP026 T12281250 FZRANO
PASX 231756Z AUTO 00000KT 10SM CLR M21/M23 A2957 RMK AO2 SNB38E50 SLP024 P0000 60000 T12111228 11189 21228 56009 FZRANO
PASX 231656Z AUTO 08003KT 10SM SCT085 M21/M23 A2958 RMK AO2 SLP026 T12111233 FZRANO
PASX 231556Z AUTO 00000KT 10SM OVC080 M22/M24 A2959 RMK AO2 SNB02E13 SLP029 P0000 T12171239 FZRANO
PASX 231456Z AUTO 11003KT 10SM SCT090 M22/M24 A2960 RMK AO2 SNE04 SLP033 P0000 60000 T12221244 58020 FZRANO